sensor_id;sensor_type;location;lat;lon;timestamp;P1;durP1;ratioP1;P2;durP2;ratioP2
40116;SDS011;25829;50.228;18.936;2022-09-12T00:01:31;4.90;;;4.28;;
40116;SDS011;25829;50.228;18.936;2022-09-12T00:04:32;10.13;;;3.88;;
40116;SDS011;25829;50.228;18.936;2022-09-12T00:07:33;6.22;;;4.45;;
40116;SDS011;25829;50.228;18.936;2022-09-12T00:10:36;8.30;;;4.30;;
40116;SDS011;25829;50.228;18.936;2022-09-12T00:13:39;5.28;;;4.32;;
40116;SDS011;25829;50.228;18.936;2022-09-12T00:16:41;4.82;;;4.05;;
40116;SDS011;25829;50.228;18.936;2022-09-12T00:19:42;4.75;;;4.25;;
40116;SDS011;25829;50.228;18.936;2022-09-12T00:22:43;5.32;;;4.45;;
40116;SDS011;25829;50.228;18.936;2022-09-12T00:25:45;5.20;;;4.13;;
40116;SDS011;25829;50.228;18.936;2022-09-12T00:28:47;4.30;;;3.90;;
40116;SDS011;25829;50.228;18.936;2022-09-12T00:31:48;4.50;;;3.97;;
40116;SDS011;25829;50.228;18.936;2022-09-12T00:34:49;6.90;;;4.35;;
40116;SDS011;25829;50.228;18.936;2022-09-12T00:37:49;4.80;;;4.20;;
40116;SDS011;25829;50.228;18.936;2022-09-12T00:40:50;6.60;;;4.20;;
40116;SDS011;25829;50.228;18.936;2022-09-12T00:43:52;7.75;;;4.57;;
40116;SDS011;25829;50.228;18.936;2022-09-12T00:50:11;4.55;;;4.03;;
40116;SDS011;25829;50.228;18.936;2022-09-12T00:53:13;7.57;;;4.30;;
40116;SDS011;25829;50.228;18.936;2022-09-12T00:56:14;5.45;;;4.18;;
40116;SDS011;25829;50.228;18.936;2022-09-12T00:59:19;6.22;;;4.65;;
40116;SDS011;25829;50.228;18.936;2022-09-12T01:02:24;9.48;;;4.15;;
40116;SDS011;25829;50.228;18.936;2022-09-12T01:05:27;7.07;;;4.80;;
40116;SDS011;25829;50.228;18.936;2022-09-12T01:08:30;8.43;;;4.90;;
40116;SDS011;25829;50.228;18.936;2022-09-12T01:11:33;6.70;;;4.82;;
40116;SDS011;25829;50.228;18.936;2022-09-12T01:14:36;8.98;;;5.38;;
40116;SDS011;25829;50.228;18.936;2022-09-12T01:18:24;5.53;;;4.75;;
40116;SDS011;25829;50.228;18.936;2022-09-12T01:31:22;5.95;;;4.63;;
40116;SDS011;25829;50.228;18.936;2022-09-12T01:34:45;5.43;;;4.93;;
40116;SDS011;25829;50.228;18.936;2022-09-12T01:51:15;5.43;;;4.40;;
40116;SDS011;25829;50.228;18.936;2022-09-12T01:54:18;6.07;;;4.10;;
40116;SDS011;25829;50.228;18.936;2022-09-12T01:57:30;4.53;;;4.07;;
40116;SDS011;25829;50.228;18.936;2022-09-12T02:00:49;5.85;;;3.92;;
40116;SDS011;25829;50.228;18.936;2022-09-12T02:07:28;4.90;;;4.30;;
40116;SDS011;25829;50.228;18.936;2022-09-12T02:10:55;4.80;;;4.00;;
40116;SDS011;25829;50.228;18.936;2022-09-12T02:14:09;4.90;;;4.45;;
40116;SDS011;25829;50.228;18.936;2022-09-12T02:17:21;4.75;;;4.22;;
40116;SDS011;25829;50.228;18.936;2022-09-12T02:20:30;6.97;;;4.50;;
40116;SDS011;25829;50.228;18.936;2022-09-12T02:23:36;6.53;;;4.65;;
40116;SDS011;25829;50.228;18.936;2022-09-12T02:26:43;4.65;;;4.25;;
40116;SDS011;25829;50.228;18.936;2022-09-12T02:29:49;8.50;;;4.70;;
40116;SDS011;25829;50.228;18.936;2022-09-12T02:33:00;6.43;;;4.47;;
40116;SDS011;25829;50.228;18.936;2022-09-12T02:36:14;6.38;;;4.30;;
40116;SDS011;25829;50.228;18.936;2022-09-12T02:39:39;6.75;;;4.53;;
40116;SDS011;25829;50.228;18.936;2022-09-12T02:42:40;6.60;;;5.57;;
40116;SDS011;25829;50.228;18.936;2022-09-12T02:45:40;7.63;;;4.45;;
40116;SDS011;25829;50.228;18.936;2022-09-12T02:48:41;5.20;;;4.43;;
40116;SDS011;25829;50.228;18.936;2022-09-12T02:51:43;5.93;;;4.68;;
40116;SDS011;25829;50.228;18.936;2022-09-12T02:54:45;5.32;;;4.53;;
40116;SDS011;25829;50.228;18.936;2022-09-12T02:57:47;10.38;;;5.03;;
40116;SDS011;25829;50.228;18.936;2022-09-12T03:00:50;4.95;;;4.45;;
40116;SDS011;25829;50.228;18.936;2022-09-12T03:21:10;5.10;;;4.60;;
40116;SDS011;25829;50.228;18.936;2022-09-12T03:27:33;6.45;;;4.45;;
40116;SDS011;25829;50.228;18.936;2022-09-12T03:30:41;5.05;;;4.55;;
40116;SDS011;25829;50.228;18.936;2022-09-12T03:33:45;5.28;;;4.63;;
40116;SDS011;25829;50.228;18.936;2022-09-12T03:36:46;8.45;;;4.97;;
40116;SDS011;25829;50.228;18.936;2022-09-12T03:39:47;5.90;;;4.68;;
40116;SDS011;25829;50.228;18.936;2022-09-12T03:42:47;5.68;;;4.47;;
40116;SDS011;25829;50.228;18.936;2022-09-12T03:45:51;7.38;;;4.57;;
40116;SDS011;25829;50.228;18.936;2022-09-12T03:48:52;5.75;;;4.85;;
40116;SDS011;25829;50.228;18.936;2022-09-12T03:51:53;11.63;;;4.80;;
40116;SDS011;25829;50.228;18.936;2022-09-12T03:54:53;6.72;;;5.07;;
40116;SDS011;25829;50.228;18.936;2022-09-12T03:57:54;5.53;;;4.60;;
40116;SDS011;25829;50.228;18.936;2022-09-12T04:00:55;4.80;;;4.40;;
40116;SDS011;25829;50.228;18.936;2022-09-12T04:03:56;6.22;;;4.35;;
40116;SDS011;25829;50.228;18.936;2022-09-12T04:06:57;4.95;;;4.45;;
40116;SDS011;25829;50.228;18.936;2022-09-12T04:09:58;5.90;;;5.20;;
40116;SDS011;25829;50.228;18.936;2022-09-12T04:12:58;5.85;;;4.78;;
40116;SDS011;25829;50.228;18.936;2022-09-12T04:15:59;5.63;;;4.22;;
40116;SDS011;25829;50.228;18.936;2022-09-12T04:19:00;5.10;;;4.53;;
40116;SDS011;25829;50.228;18.936;2022-09-12T04:22:01;5.80;;;4.90;;
40116;SDS011;25829;50.228;18.936;2022-09-12T04:25:02;6.47;;;4.75;;
40116;SDS011;25829;50.228;18.936;2022-09-12T04:28:03;7.00;;;4.25;;
40116;SDS011;25829;50.228;18.936;2022-09-12T04:31:05;5.38;;;4.10;;
40116;SDS011;25829;50.228;18.936;2022-09-12T04:34:08;5.03;;;4.15;;
40116;SDS011;25829;50.228;18.936;2022-09-12T04:37:09;7.53;;;4.22;;
40116;SDS011;25829;50.228;18.936;2022-09-12T04:40:10;6.65;;;4.57;;
40116;SDS011;25829;50.228;18.936;2022-09-12T04:43:12;6.68;;;4.40;;
40116;SDS011;25829;50.228;18.936;2022-09-12T04:46:13;5.10;;;4.38;;
40116;SDS011;25829;50.228;18.936;2022-09-12T04:49:15;5.05;;;4.30;;
40116;SDS011;25829;50.228;18.936;2022-09-12T04:52:18;6.60;;;5.00;;
40116;SDS011;25829;50.228;18.936;2022-09-12T04:55:19;6.13;;;4.78;;
40116;SDS011;25829;50.228;18.936;2022-09-12T04:58:21;4.97;;;4.35;;
40116;SDS011;25829;50.228;18.936;2022-09-12T05:01:22;7.93;;;5.10;;
40116;SDS011;25829;50.228;18.936;2022-09-12T05:04:22;5.82;;;5.18;;
40116;SDS011;25829;50.228;18.936;2022-09-12T05:07:23;10.20;;;6.78;;
40116;SDS011;25829;50.228;18.936;2022-09-12T05:10:24;8.00;;;6.00;;
40116;SDS011;25829;50.228;18.936;2022-09-12T05:13:25;6.57;;;5.20;;
40116;SDS011;25829;50.228;18.936;2022-09-12T05:16:27;7.50;;;5.70;;
40116;SDS011;25829;50.228;18.936;2022-09-12T05:19:28;8.13;;;5.38;;
40116;SDS011;25829;50.228;18.936;2022-09-12T05:22:30;7.32;;;5.72;;
40116;SDS011;25829;50.228;18.936;2022-09-12T05:25:30;7.38;;;4.82;;
40116;SDS011;25829;50.228;18.936;2022-09-12T05:28:32;8.00;;;4.90;;
40116;SDS011;25829;50.228;18.936;2022-09-12T05:31:35;7.60;;;4.97;;
40116;SDS011;25829;50.228;18.936;2022-09-12T05:34:36;7.53;;;4.57;;
40116;SDS011;25829;50.228;18.936;2022-09-12T05:37:37;10.65;;;4.45;;
40116;SDS011;25829;50.228;18.936;2022-09-12T05:40:39;4.95;;;4.50;;
40116;SDS011;25829;50.228;18.936;2022-09-12T05:43:40;4.85;;;4.40;;
40116;SDS011;25829;50.228;18.936;2022-09-12T05:46:42;4.60;;;4.05;;
40116;SDS011;25829;50.228;18.936;2022-09-12T05:49:45;5.85;;;4.15;;
40116;SDS011;25829;50.228;18.936;2022-09-12T05:52:47;4.75;;;4.00;;
40116;SDS011;25829;50.228;18.936;2022-09-12T05:55:48;5.20;;;4.45;;
40116;SDS011;25829;50.228;18.936;2022-09-12T05:58:53;7.90;;;4.05;;
40116;SDS011;25829;50.228;18.936;2022-09-12T06:01:55;7.78;;;4.82;;
40116;SDS011;25829;50.228;18.936;2022-09-12T06:04:56;4.88;;;4.28;;
40116;SDS011;25829;50.228;18.936;2022-09-12T06:07:57;6.93;;;4.65;;
40116;SDS011;25829;50.228;18.936;2022-09-12T06:10:59;5.53;;;4.30;;
40116;SDS011;25829;50.228;18.936;2022-09-12T06:14:01;5.05;;;4.18;;
40116;SDS011;25829;50.228;18.936;2022-09-12T06:17:02;5.00;;;3.90;;
40116;SDS011;25829;50.228;18.936;2022-09-12T06:20:04;5.20;;;3.50;;
40116;SDS011;25829;50.228;18.936;2022-09-12T06:23:05;6.18;;;4.25;;
40116;SDS011;25829;50.228;18.936;2022-09-12T06:26:07;5.95;;;3.92;;
40116;SDS011;25829;50.228;18.936;2022-09-12T06:29:09;3.33;;;3.03;;
40116;SDS011;25829;50.228;18.936;2022-09-12T06:32:11;4.88;;;3.65;;
40116;SDS011;25829;50.228;18.936;2022-09-12T06:35:11;6.05;;;3.53;;
40116;SDS011;25829;50.228;18.936;2022-09-12T06:38:12;4.07;;;3.67;;
40116;SDS011;25829;50.228;18.936;2022-09-12T06:41:13;3.83;;;3.42;;
40116;SDS011;25829;50.228;18.936;2022-09-12T06:44:16;5.32;;;3.53;;
40116;SDS011;25829;50.228;18.936;2022-09-12T06:47:18;4.28;;;3.20;;
40116;SDS011;25829;50.228;18.936;2022-09-12T06:50:19;6.38;;;3.88;;
40116;SDS011;25829;50.228;18.936;2022-09-12T06:53:21;5.38;;;3.90;;
40116;SDS011;25829;50.228;18.936;2022-09-12T06:56:22;6.03;;;3.50;;
40116;SDS011;25829;50.228;18.936;2022-09-12T06:59:25;3.67;;;3.38;;
40116;SDS011;25829;50.228;18.936;2022-09-12T07:02:26;3.78;;;3.10;;
40116;SDS011;25829;50.228;18.936;2022-09-12T07:05:27;3.30;;;3.00;;
40116;SDS011;25829;50.228;18.936;2022-09-12T07:08:28;4.00;;;2.95;;
40116;SDS011;25829;50.228;18.936;2022-09-12T07:11:31;6.72;;;3.00;;
40116;SDS011;25829;50.228;18.936;2022-09-12T07:14:33;5.45;;;2.70;;
40116;SDS011;25829;50.228;18.936;2022-09-12T07:17:34;4.18;;;2.45;;
40116;SDS011;25829;50.228;18.936;2022-09-12T07:20:35;3.78;;;2.70;;
40116;SDS011;25829;50.228;18.936;2022-09-12T07:23:38;4.00;;;2.72;;
40116;SDS011;25829;50.228;18.936;2022-09-12T07:26:41;5.97;;;2.97;;
40116;SDS011;25829;50.228;18.936;2022-09-12T07:29:41;6.60;;;2.70;;
40116;SDS011;25829;50.228;18.936;2022-09-12T07:32:43;4.85;;;2.53;;
40116;SDS011;25829;50.228;18.936;2022-09-12T07:35:44;4.60;;;2.47;;
40116;SDS011;25829;50.228;18.936;2022-09-12T07:38:45;4.57;;;2.58;;
40116;SDS011;25829;50.228;18.936;2022-09-12T07:41:46;4.13;;;2.40;;
40116;SDS011;25829;50.228;18.936;2022-09-12T07:44:46;2.97;;;2.40;;
40116;SDS011;25829;50.228;18.936;2022-09-12T07:47:47;3.58;;;2.00;;
40116;SDS011;25829;50.228;18.936;2022-09-12T07:50:56;4.38;;;2.40;;
40116;SDS011;25829;50.228;18.936;2022-09-12T07:54:01;3.17;;;2.42;;
40116;SDS011;25829;50.228;18.936;2022-09-12T07:57:02;3.97;;;2.33;;
40116;SDS011;25829;50.228;18.936;2022-09-12T08:00:04;4.70;;;2.40;;
40116;SDS011;25829;50.228;18.936;2022-09-12T08:03:12;5.85;;;2.47;;
40116;SDS011;25829;50.228;18.936;2022-09-12T08:06:17;5.80;;;2.70;;
40116;SDS011;25829;50.228;18.936;2022-09-12T08:09:20;3.78;;;2.53;;
40116;SDS011;25829;50.228;18.936;2022-09-12T08:12:21;2.47;;;2.20;;
40116;SDS011;25829;50.228;18.936;2022-09-12T08:15:21;2.60;;;2.35;;
40116;SDS011;25829;50.228;18.936;2022-09-12T08:18:22;2.85;;;2.05;;
40116;SDS011;25829;50.228;18.936;2022-09-12T08:21:25;7.68;;;2.75;;
40116;SDS011;25829;50.228;18.936;2022-09-12T08:24:27;5.80;;;2.20;;
40116;SDS011;25829;50.228;18.936;2022-09-12T08:27:28;3.90;;;2.50;;
40116;SDS011;25829;50.228;18.936;2022-09-12T08:30:29;3.28;;;2.10;;
40116;SDS011;25829;50.228;18.936;2022-09-12T08:33:29;2.95;;;2.20;;
40116;SDS011;25829;50.228;18.936;2022-09-12T08:36:34;4.13;;;2.38;;
40116;SDS011;25829;50.228;18.936;2022-09-12T08:39:34;3.03;;;2.33;;
40116;SDS011;25829;50.228;18.936;2022-09-12T08:42:42;4.75;;;2.58;;
40116;SDS011;25829;50.228;18.936;2022-09-12T08:45:57;4.75;;;2.50;;
40116;SDS011;25829;50.228;18.936;2022-09-12T08:49:06;3.17;;;2.60;;
40116;SDS011;25829;50.228;18.936;2022-09-12T08:52:16;5.10;;;2.47;;
40116;SDS011;25829;50.228;18.936;2022-09-12T08:58:44;2.97;;;2.20;;
40116;SDS011;25829;50.228;18.936;2022-09-12T09:01:45;6.63;;;2.60;;
40116;SDS011;25829;50.228;18.936;2022-09-12T09:04:51;6.40;;;2.78;;
40116;SDS011;25829;50.228;18.936;2022-09-12T09:18:30;5.38;;;2.60;;
40116;SDS011;25829;50.228;18.936;2022-09-12T09:21:36;3.72;;;2.95;;
40116;SDS011;25829;50.228;18.936;2022-09-12T09:24:41;2.47;;;2.20;;
40116;SDS011;25829;50.228;18.936;2022-09-12T09:31:28;3.30;;;2.40;;
40116;SDS011;25829;50.228;18.936;2022-09-12T09:34:37;2.72;;;2.22;;
40116;SDS011;25829;50.228;18.936;2022-09-12T09:37:40;2.70;;;2.10;;
40116;SDS011;25829;50.228;18.936;2022-09-12T09:43:45;2.47;;;2.13;;
40116;SDS011;25829;50.228;18.936;2022-09-12T09:46:47;2.60;;;2.25;;
40116;SDS011;25829;50.228;18.936;2022-09-12T09:49:53;3.95;;;2.15;;
40116;SDS011;25829;50.228;18.936;2022-09-12T09:52:54;5.60;;;1.80;;
40116;SDS011;25829;50.228;18.936;2022-09-12T09:55:59;4.05;;;1.83;;
40116;SDS011;25829;50.228;18.936;2022-09-12T09:59:11;2.78;;;2.05;;
40116;SDS011;25829;50.228;18.936;2022-09-12T10:02:19;2.65;;;1.65;;
40116;SDS011;25829;50.228;18.936;2022-09-12T10:05:22;2.38;;;2.08;;
40116;SDS011;25829;50.228;18.936;2022-09-12T10:08:24;5.72;;;1.83;;
40116;SDS011;25829;50.228;18.936;2022-09-12T10:11:28;2.20;;;2.00;;
40116;SDS011;25829;50.228;18.936;2022-09-12T10:14:39;4.22;;;1.70;;
40116;SDS011;25829;50.228;18.936;2022-09-12T10:17:44;1.63;;;1.50;;
40116;SDS011;25829;50.228;18.936;2022-09-12T10:20:47;2.53;;;1.80;;
40116;SDS011;25829;50.228;18.936;2022-09-12T10:23:50;3.78;;;1.90;;
40116;SDS011;25829;50.228;18.936;2022-09-12T10:30:16;2.78;;;1.90;;
40116;SDS011;25829;50.228;18.936;2022-09-12T10:33:18;2.80;;;1.70;;
40116;SDS011;25829;50.228;18.936;2022-09-12T10:36:19;2.03;;;1.80;;
40116;SDS011;25829;50.228;18.936;2022-09-12T10:39:24;5.28;;;2.10;;
40116;SDS011;25829;50.228;18.936;2022-09-12T10:42:46;1.98;;;1.88;;
40116;SDS011;25829;50.228;18.936;2022-09-12T10:45:55;2.33;;;1.95;;
40116;SDS011;25829;50.228;18.936;2022-09-12T10:49:17;5.05;;;1.85;;
40116;SDS011;25829;50.228;18.936;2022-09-12T10:52:22;2.22;;;2.00;;
40116;SDS011;25829;50.228;18.936;2022-09-12T10:55:27;2.65;;;1.60;;
40116;SDS011;25829;50.228;18.936;2022-09-12T11:02:03;2.95;;;1.90;;
40116;SDS011;25829;50.228;18.936;2022-09-12T11:06:01;3.38;;;1.75;;
40116;SDS011;25829;50.228;18.936;2022-09-12T11:09:20;2.65;;;1.65;;
40116;SDS011;25829;50.228;18.936;2022-09-12T11:26:18;2.45;;;1.80;;
40116;SDS011;25829;50.228;18.936;2022-09-12T11:36:22;6.55;;;1.80;;
40116;SDS011;25829;50.228;18.936;2022-09-12T11:39:38;2.08;;;1.88;;
40116;SDS011;25829;50.228;18.936;2022-09-12T11:42:42;1.85;;;1.75;;
40116;SDS011;25829;50.228;18.936;2022-09-12T11:45:45;2.40;;;1.70;;
40116;SDS011;25829;50.228;18.936;2022-09-12T11:52:00;2.60;;;1.80;;
40116;SDS011;25829;50.228;18.936;2022-09-12T11:55:18;3.88;;;1.90;;
40116;SDS011;25829;50.228;18.936;2022-09-12T11:58:25;2.60;;;2.20;;
40116;SDS011;25829;50.228;18.936;2022-09-12T12:01:34;4.05;;;2.20;;
40116;SDS011;25829;50.228;18.936;2022-09-12T12:04:43;2.75;;;1.55;;
40116;SDS011;25829;50.228;18.936;2022-09-12T12:08:16;2.25;;;2.00;;
40116;SDS011;25829;50.228;18.936;2022-09-12T12:11:36;1.75;;;1.63;;
40116;SDS011;25829;50.228;18.936;2022-09-12T12:14:42;2.10;;;1.90;;
40116;SDS011;25829;50.228;18.936;2022-09-12T12:17:45;2.95;;;1.67;;
40116;SDS011;25829;50.228;18.936;2022-09-12T12:24:34;3.15;;;1.60;;
40116;SDS011;25829;50.228;18.936;2022-09-12T12:27:56;3.90;;;1.73;;
40116;SDS011;25829;50.228;18.936;2022-09-12T12:31:01;3.95;;;2.13;;
40116;SDS011;25829;50.228;18.936;2022-09-12T12:34:03;2.30;;;1.70;;
40116;SDS011;25829;50.228;18.936;2022-09-12T12:40:23;2.03;;;1.83;;
40116;SDS011;25829;50.228;18.936;2022-09-12T12:43:29;1.65;;;1.55;;
40116;SDS011;25829;50.228;18.936;2022-09-12T12:46:31;5.35;;;1.80;;
40116;SDS011;25829;50.228;18.936;2022-09-12T12:49:37;4.03;;;1.70;;
40116;SDS011;25829;50.228;18.936;2022-09-12T12:52:45;3.63;;;1.77;;
40116;SDS011;25829;50.228;18.936;2022-09-12T12:55:50;4.07;;;1.90;;
40116;SDS011;25829;50.228;18.936;2022-09-12T12:59:00;1.95;;;1.83;;
40116;SDS011;25829;50.228;18.936;2022-09-12T13:02:05;1.73;;;1.63;;
40116;SDS011;25829;50.228;18.936;2022-09-12T13:05:15;1.92;;;1.73;;
40116;SDS011;25829;50.228;18.936;2022-09-12T13:08:42;1.90;;;1.70;;
40116;SDS011;25829;50.228;18.936;2022-09-12T13:11:55;1.70;;;1.58;;
40116;SDS011;25829;50.228;18.936;2022-09-12T13:15:01;1.88;;;1.55;;
40116;SDS011;25829;50.228;18.936;2022-09-12T13:18:06;3.60;;;2.15;;
40116;SDS011;25829;50.228;18.936;2022-09-12T13:21:15;2.80;;;1.70;;
40116;SDS011;25829;50.228;18.936;2022-09-12T13:24:21;4.03;;;2.10;;
40116;SDS011;25829;50.228;18.936;2022-09-12T13:27:24;2.10;;;1.90;;
40116;SDS011;25829;50.228;18.936;2022-09-12T13:30:25;4.00;;;2.13;;
40116;SDS011;25829;50.228;18.936;2022-09-12T13:33:35;2.67;;;2.20;;
40116;SDS011;25829;50.228;18.936;2022-09-12T13:36:52;2.85;;;2.00;;
40116;SDS011;25829;50.228;18.936;2022-09-12T13:43:24;2.67;;;1.90;;
40116;SDS011;25829;50.228;18.936;2022-09-12T13:46:46;2.15;;;1.80;;
40116;SDS011;25829;50.228;18.936;2022-09-12T13:49:49;3.75;;;1.88;;
40116;SDS011;25829;50.228;18.936;2022-09-12T13:52:51;2.05;;;1.85;;
40116;SDS011;25829;50.228;18.936;2022-09-12T13:55:55;2.90;;;2.10;;
40116;SDS011;25829;50.228;18.936;2022-09-12T13:58:59;2.85;;;1.90;;
40116;SDS011;25829;50.228;18.936;2022-09-12T14:02:01;3.88;;;1.95;;
40116;SDS011;25829;50.228;18.936;2022-09-12T14:05:11;6.03;;;2.75;;
40116;SDS011;25829;50.228;18.936;2022-09-12T14:08:24;2.83;;;2.00;;
40116;SDS011;25829;50.228;18.936;2022-09-12T14:11:26;2.58;;;1.92;;
40116;SDS011;25829;50.228;18.936;2022-09-12T14:14:33;2.60;;;2.33;;
40116;SDS011;25829;50.228;18.936;2022-09-12T14:17:36;2.10;;;1.90;;
40116;SDS011;25829;50.228;18.936;2022-09-12T14:20:38;2.67;;;2.05;;
40116;SDS011;25829;50.228;18.936;2022-09-12T14:23:41;3.40;;;1.95;;
40116;SDS011;25829;50.228;18.936;2022-09-12T14:26:44;2.10;;;1.90;;
40116;SDS011;25829;50.228;18.936;2022-09-12T14:29:46;4.63;;;2.63;;
40116;SDS011;25829;50.228;18.936;2022-09-12T14:36:20;3.42;;;2.15;;
40116;SDS011;25829;50.228;18.936;2022-09-12T14:39:28;3.00;;;1.90;;
40116;SDS011;25829;50.228;18.936;2022-09-12T14:42:48;2.60;;;1.70;;
40116;SDS011;25829;50.228;18.936;2022-09-12T14:45:56;2.53;;;1.83;;
40116;SDS011;25829;50.228;18.936;2022-09-12T14:49:24;1.70;;;1.60;;
40116;SDS011;25829;50.228;18.936;2022-09-12T14:52:28;1.92;;;1.42;;
40116;SDS011;25829;50.228;18.936;2022-09-12T14:55:39;4.15;;;1.70;;
40116;SDS011;25829;50.228;18.936;2022-09-12T14:58:45;2.13;;;1.92;;
40116;SDS011;25829;50.228;18.936;2022-09-12T15:01:46;3.22;;;1.77;;
40116;SDS011;25829;50.228;18.936;2022-09-12T15:05:21;1.98;;;1.63;;
40116;SDS011;25829;50.228;18.936;2022-09-12T15:08:24;2.75;;;1.95;;
40116;SDS011;25829;50.228;18.936;2022-09-12T15:11:26;6.80;;;2.13;;
40116;SDS011;25829;50.228;18.936;2022-09-12T15:14:27;4.50;;;1.70;;
40116;SDS011;25829;50.228;18.936;2022-09-12T15:17:28;3.58;;;1.88;;
40116;SDS011;25829;50.228;18.936;2022-09-12T15:20:29;2.00;;;1.90;;
40116;SDS011;25829;50.228;18.936;2022-09-12T15:23:32;2.00;;;1.70;;
40116;SDS011;25829;50.228;18.936;2022-09-12T15:26:37;2.20;;;1.60;;
40116;SDS011;25829;50.228;18.936;2022-09-12T15:29:38;3.70;;;1.88;;
40116;SDS011;25829;50.228;18.936;2022-09-12T15:32:39;1.70;;;1.60;;
40116;SDS011;25829;50.228;18.936;2022-09-12T15:35:42;4.57;;;1.88;;
40116;SDS011;25829;50.228;18.936;2022-09-12T15:38:43;2.45;;;1.88;;
40116;SDS011;25829;50.228;18.936;2022-09-12T15:41:45;2.30;;;1.90;;
40116;SDS011;25829;50.228;18.936;2022-09-12T15:44:47;2.25;;;1.77;;
40116;SDS011;25829;50.228;18.936;2022-09-12T15:47:47;2.17;;;1.98;;
40116;SDS011;25829;50.228;18.936;2022-09-12T15:50:48;2.22;;;1.98;;
40116;SDS011;25829;50.228;18.936;2022-09-12T15:53:49;1.80;;;1.67;;
40116;SDS011;25829;50.228;18.936;2022-09-12T15:56:51;3.05;;;1.75;;
40116;SDS011;25829;50.228;18.936;2022-09-12T15:59:51;2.15;;;1.83;;
40116;SDS011;25829;50.228;18.936;2022-09-12T16:02:53;2.47;;;2.00;;
40116;SDS011;25829;50.228;18.936;2022-09-12T16:05:55;3.33;;;2.00;;
40116;SDS011;25829;50.228;18.936;2022-09-12T16:08:57;3.15;;;1.70;;
40116;SDS011;25829;50.228;18.936;2022-09-12T16:11:58;2.28;;;1.98;;
40116;SDS011;25829;50.228;18.936;2022-09-12T16:14:58;2.95;;;2.20;;
40116;SDS011;25829;50.228;18.936;2022-09-12T16:17:59;4.00;;;2.20;;
40116;SDS011;25829;50.228;18.936;2022-09-12T16:21:00;2.38;;;2.08;;
40116;SDS011;25829;50.228;18.936;2022-09-12T16:24:01;2.72;;;2.20;;
40116;SDS011;25829;50.228;18.936;2022-09-12T16:27:02;2.85;;;2.60;;
40116;SDS011;25829;50.228;18.936;2022-09-12T16:30:05;4.70;;;2.50;;
40116;SDS011;25829;50.228;18.936;2022-09-12T16:33:07;3.30;;;2.50;;
40116;SDS011;25829;50.228;18.936;2022-09-12T16:36:08;2.63;;;2.38;;
40116;SDS011;25829;50.228;18.936;2022-09-12T16:39:11;5.15;;;2.67;;
40116;SDS011;25829;50.228;18.936;2022-09-12T16:42:12;3.13;;;2.65;;
40116;SDS011;25829;50.228;18.936;2022-09-12T16:45:13;5.93;;;2.63;;
40116;SDS011;25829;50.228;18.936;2022-09-12T16:48:13;4.90;;;2.92;;
40116;SDS011;25829;50.228;18.936;2022-09-12T16:51:15;5.25;;;2.70;;
40116;SDS011;25829;50.228;18.936;2022-09-12T16:54:17;4.15;;;2.80;;
40116;SDS011;25829;50.228;18.936;2022-09-12T16:57:18;3.28;;;2.50;;
40116;SDS011;25829;50.228;18.936;2022-09-12T17:00:18;3.90;;;2.55;;
40116;SDS011;25829;50.228;18.936;2022-09-12T17:03:19;4.65;;;2.80;;
40116;SDS011;25829;50.228;18.936;2022-09-12T17:06:20;3.97;;;2.50;;
40116;SDS011;25829;50.228;18.936;2022-09-12T17:09:21;6.03;;;2.80;;
40116;SDS011;25829;50.228;18.936;2022-09-12T17:12:22;3.03;;;2.50;;
40116;SDS011;25829;50.228;18.936;2022-09-12T17:15:23;3.13;;;2.58;;
40116;SDS011;25829;50.228;18.936;2022-09-12T17:18:24;5.70;;;3.35;;
40116;SDS011;25829;50.228;18.936;2022-09-12T17:21:25;2.70;;;2.50;;
40116;SDS011;25829;50.228;18.936;2022-09-12T17:24:26;3.55;;;2.85;;
40116;SDS011;25829;50.228;18.936;2022-09-12T17:27:27;5.68;;;3.60;;
40116;SDS011;25829;50.228;18.936;2022-09-12T17:30:28;5.68;;;3.15;;
40116;SDS011;25829;50.228;18.936;2022-09-12T17:33:28;7.28;;;3.40;;
40116;SDS011;25829;50.228;18.936;2022-09-12T17:36:29;8.00;;;4.78;;
40116;SDS011;25829;50.228;18.936;2022-09-12T17:39:31;7.30;;;5.20;;
40116;SDS011;25829;50.228;18.936;2022-09-12T17:42:31;6.50;;;5.47;;
40116;SDS011;25829;50.228;18.936;2022-09-12T17:45:32;7.25;;;5.35;;
40116;SDS011;25829;50.228;18.936;2022-09-12T17:48:33;8.80;;;4.97;;
40116;SDS011;25829;50.228;18.936;2022-09-12T17:51:35;5.13;;;4.47;;
40116;SDS011;25829;50.228;18.936;2022-09-12T17:54:35;4.05;;;3.63;;
40116;SDS011;25829;50.228;18.936;2022-09-12T17:57:36;4.57;;;3.70;;
40116;SDS011;25829;50.228;18.936;2022-09-12T18:00:37;7.25;;;4.63;;
40116;SDS011;25829;50.228;18.936;2022-09-12T18:03:57;7.82;;;3.78;;
40116;SDS011;25829;50.228;18.936;2022-09-12T18:07:02;4.72;;;3.70;;
40116;SDS011;25829;50.228;18.936;2022-09-12T18:10:02;4.70;;;4.13;;
40116;SDS011;25829;50.228;18.936;2022-09-12T18:13:03;6.80;;;3.92;;
40116;SDS011;25829;50.228;18.936;2022-09-12T18:16:05;7.65;;;4.00;;
40116;SDS011;25829;50.228;18.936;2022-09-12T18:19:08;4.95;;;4.38;;
40116;SDS011;25829;50.228;18.936;2022-09-12T18:22:09;5.85;;;4.28;;
40116;SDS011;25829;50.228;18.936;2022-09-12T18:25:10;6.80;;;4.28;;
40116;SDS011;25829;50.228;18.936;2022-09-12T18:28:11;5.22;;;4.50;;
40116;SDS011;25829;50.228;18.936;2022-09-12T18:31:16;8.35;;;4.00;;
40116;SDS011;25829;50.228;18.936;2022-09-12T18:34:18;6.05;;;4.65;;
40116;SDS011;25829;50.228;18.936;2022-09-12T18:37:19;4.85;;;4.15;;
40116;SDS011;25829;50.228;18.936;2022-09-12T18:40:23;5.00;;;4.07;;
40116;SDS011;25829;50.228;18.936;2022-09-12T18:43:24;6.30;;;4.60;;
40116;SDS011;25829;50.228;18.936;2022-09-12T18:46:26;6.88;;;5.40;;
40116;SDS011;25829;50.228;18.936;2022-09-12T18:49:27;7.30;;;4.93;;
40116;SDS011;25829;50.228;18.936;2022-09-12T18:52:29;5.60;;;3.17;;
40116;SDS011;25829;50.228;18.936;2022-09-12T18:55:30;4.15;;;3.30;;
40116;SDS011;25829;50.228;18.936;2022-09-12T18:58:31;3.42;;;3.03;;
40116;SDS011;25829;50.228;18.936;2022-09-12T19:01:36;7.18;;;3.55;;
40116;SDS011;25829;50.228;18.936;2022-09-12T19:04:38;4.97;;;3.20;;
40116;SDS011;25829;50.228;18.936;2022-09-12T19:07:38;4.90;;;3.47;;
40116;SDS011;25829;50.228;18.936;2022-09-12T19:10:39;6.32;;;3.47;;
40116;SDS011;25829;50.228;18.936;2022-09-12T19:13:41;4.93;;;3.38;;
40116;SDS011;25829;50.228;18.936;2022-09-12T19:16:43;6.72;;;3.70;;
40116;SDS011;25829;50.228;18.936;2022-09-12T19:19:44;5.90;;;3.80;;
40116;SDS011;25829;50.228;18.936;2022-09-12T19:22:45;4.15;;;3.75;;
40116;SDS011;25829;50.228;18.936;2022-09-12T19:25:56;6.43;;;4.30;;
40116;SDS011;25829;50.228;18.936;2022-09-12T19:28:58;4.57;;;4.18;;
40116;SDS011;25829;50.228;18.936;2022-09-12T19:32:01;8.20;;;4.72;;
40116;SDS011;25829;50.228;18.936;2022-09-12T19:35:02;4.57;;;4.05;;
40116;SDS011;25829;50.228;18.936;2022-09-12T19:38:04;5.57;;;4.05;;
40116;SDS011;25829;50.228;18.936;2022-09-12T19:41:05;4.63;;;3.63;;
40116;SDS011;25829;50.228;18.936;2022-09-12T19:44:07;3.88;;;3.35;;
40116;SDS011;25829;50.228;18.936;2022-09-12T19:47:08;5.38;;;3.15;;
40116;SDS011;25829;50.228;18.936;2022-09-12T19:50:09;4.90;;;3.60;;
40116;SDS011;25829;50.228;18.936;2022-09-12T19:53:10;6.10;;;3.53;;
40116;SDS011;25829;50.228;18.936;2022-09-12T19:56:12;4.78;;;3.97;;
40116;SDS011;25829;50.228;18.936;2022-09-12T19:59:13;5.88;;;4.20;;
40116;SDS011;25829;50.228;18.936;2022-09-12T20:02:14;4.63;;;3.55;;
40116;SDS011;25829;50.228;18.936;2022-09-12T20:05:15;5.07;;;4.25;;
40116;SDS011;25829;50.228;18.936;2022-09-12T20:08:16;7.78;;;5.22;;